createdAt,value
2017-07-17T00:02:39.623Z,1014.43
2017-07-17T00:12:39.602Z,1014.33
2017-07-17T00:22:39.666Z,1014.24
2017-07-17T00:32:39.601Z,1014.21
2017-07-17T00:42:39.612Z,1014.24
2017-07-17T00:52:39.618Z,1014.23
2017-07-17T01:02:39.691Z,1014.27
2017-07-17T01:12:39.604Z,1014.4
2017-07-17T01:22:39.732Z,1014.36
2017-07-17T01:32:39.690Z,1014.21
2017-07-17T01:42:39.615Z,1014.28
2017-07-17T01:52:39.715Z,1014.27
2017-07-17T02:02:39.608Z,1014.24
2017-07-17T02:12:39.618Z,1014.22
2017-07-17T02:22:39.608Z,1014.21
2017-07-17T02:32:39.611Z,1014.23
2017-07-17T02:42:40.635Z,1014.24
2017-07-17T02:52:39.885Z,1014.27
2017-07-17T03:02:39.610Z,1014.19
2017-07-17T03:12:39.608Z,1014.18
2017-07-17T03:22:39.664Z,1014.16
2017-07-17T03:32:39.720Z,1014.28
2017-07-17T03:42:39.682Z,1014.33
2017-07-17T03:52:39.619Z,1014.46
2017-07-17T04:02:39.609Z,1014.61
2017-07-17T04:12:39.672Z,1014.66
2017-07-17T04:22:39.617Z,1014.54
2017-07-17T04:32:40.716Z,1014.59
2017-07-17T04:42:39.609Z,1014.67
2017-07-17T04:52:39.619Z,1014.66
2017-07-17T05:02:39.609Z,1014.81
2017-07-17T05:12:39.621Z,1014.89
2017-07-17T05:22:39.717Z,1014.94
2017-07-17T05:32:39.666Z,1014.96
2017-07-17T05:42:39.624Z,1015
2017-07-17T05:52:39.616Z,1015.12
2017-07-17T06:02:39.628Z,1015.22
2017-07-17T06:12:39.714Z,1015.4
2017-07-17T06:22:39.633Z,1015.42
2017-07-17T06:32:39.634Z,1015.62
2017-07-17T06:42:39.626Z,1015.74
2017-07-17T06:52:39.629Z,1015.87
2017-07-17T07:02:39.967Z,1015.73
2017-07-17T07:12:39.647Z,1015.79
2017-07-17T07:22:39.648Z,1015.93
2017-07-17T07:32:39.660Z,1015.93
2017-07-17T07:42:39.664Z,1016.02
2017-07-17T07:52:39.650Z,1016.06
2017-07-17T08:02:39.697Z,1016.05
2017-07-17T08:12:39.676Z,1015.83
2017-07-17T08:22:39.656Z,1015.91
2017-07-17T08:32:39.668Z,1016.08
2017-07-17T08:42:39.665Z,1016.08
2017-07-17T08:52:39.681Z,1016
2017-07-17T09:02:39.678Z,1015.92
2017-07-17T09:12:39.681Z,1015.75
2017-07-17T09:22:39.684Z,1015.68
2017-07-17T09:32:39.684Z,1015.55
2017-07-17T09:42:39.697Z,1015.58
2017-07-17T09:52:39.693Z,1015.54
2017-07-17T10:02:39.684Z,1015.58
2017-07-17T10:12:39.693Z,1015.57
2017-07-17T10:22:39.687Z,1015.56
2017-07-17T10:32:39.694Z,1015.56
2017-07-17T10:42:39.696Z,1015.57
2017-07-17T10:52:39.699Z,1015.55
2017-07-17T11:02:39.694Z,1015.6
2017-07-17T11:12:39.699Z,1015.59
2017-07-17T11:22:39.699Z,1015.71
2017-07-17T11:42:39.709Z,1015.62
2017-07-17T12:02:39.684Z,1015.53
2017-07-17T12:12:39.697Z,1015.53
2017-07-17T12:22:39.787Z,1015.46
2017-07-17T12:32:39.694Z,1015.36
2017-07-17T12:42:39.691Z,1015.3
2017-07-17T12:52:39.712Z,1015.28
2017-07-17T13:02:39.699Z,1015.13
2017-07-17T13:12:39.766Z,1015.19
2017-07-17T13:22:39.711Z,1015.16
2017-07-17T13:32:39.708Z,1015.14
2017-07-17T13:42:39.734Z,1015.21
2017-07-17T13:52:39.724Z,1015.04
2017-07-17T14:02:39.730Z,1015.08
2017-07-17T14:12:39.743Z,1015.05
2017-07-17T14:22:39.785Z,1015.03
2017-07-17T14:32:39.721Z,1014.98
2017-07-17T14:42:41.777Z,1014.98
2017-07-17T14:52:39.816Z,1014.91
2017-07-17T15:02:39.737Z,1014.85
2017-07-17T15:12:39.714Z,1014.85
2017-07-17T15:22:39.725Z,1014.8
2017-07-17T15:32:39.760Z,1014.8
2017-07-17T15:42:39.731Z,1014.73
2017-07-17T15:52:39.724Z,1014.65
2017-07-17T16:02:39.753Z,1014.6
2017-07-17T16:12:39.734Z,1014.58
2017-07-17T16:22:39.733Z,1014.43
2017-07-17T16:32:39.812Z,1014.44
2017-07-17T16:42:41.790Z,1014.39
2017-07-17T16:52:39.724Z,1014.33
2017-07-17T17:02:39.740Z,1014.36
2017-07-17T17:12:39.733Z,1014.43
2017-07-17T17:22:39.761Z,1014.46
2017-07-17T17:32:40.458Z,1014.38
2017-07-17T17:42:39.743Z,1014.46
2017-07-17T17:52:39.753Z,1014.57
2017-07-17T18:02:39.734Z,1014.62
2017-07-17T18:12:39.758Z,1014.61
2017-07-17T18:22:39.800Z,1014.64
2017-07-17T18:32:40.814Z,1014.63
2017-07-17T18:42:39.749Z,1014.73
2017-07-17T18:52:39.758Z,1014.73
2017-07-17T19:02:39.767Z,1014.71
2017-07-17T19:12:39.749Z,1014.82
2017-07-17T19:22:39.796Z,1014.85
2017-07-17T19:32:39.865Z,1014.87
2017-07-17T19:42:39.825Z,1014.91
2017-07-17T19:52:39.779Z,1015.02
2017-07-17T20:02:39.750Z,1015.03
2017-07-17T20:12:39.812Z,1015.1
2017-07-17T20:22:39.767Z,1015.09
2017-07-17T20:32:39.746Z,1015.1
2017-07-17T20:42:39.780Z,1015.09
2017-07-17T20:52:39.773Z,1015.11
2017-07-17T21:02:39.841Z,1015.08
2017-07-17T21:12:39.767Z,1015.08
2017-07-17T21:22:40.151Z,1015.18
2017-07-17T21:32:39.787Z,1015.14
2017-07-17T21:42:39.772Z,1015.17
2017-07-17T21:52:39.835Z,1015.25
2017-07-17T22:02:39.862Z,1015.3
2017-07-17T22:12:39.765Z,1015.31
2017-07-17T22:22:39.749Z,1015.31
2017-07-17T22:32:39.743Z,1015.34
2017-07-17T22:42:39.825Z,1015.35
2017-07-17T22:52:39.783Z,1015.31
2017-07-17T23:02:39.752Z,1015.44
2017-07-17T23:12:39.746Z,1015.44
2017-07-17T23:22:39.778Z,1015.43
2017-07-17T23:32:39.768Z,1015.36
2017-07-17T23:42:39.971Z,1015.37
2017-07-17T23:52:39.761Z,1015.39
